Allentown, PA

07:11 EDT dnia 25-październik-2014 (GMT -0400)
South Filmore Street | Change Station
CLOSE
Current Station
Stacja PWS
Location: Allentown, PA
n.p.m.: 341 ft
Najbliższa stacja pogodowa

Wysokość 341 ft 40.59 °N, 75.45 °W | Updated 3 seconds ago

Clear
pogodnie
41.5 ° F
Odczuwalna 42 ° F
Płn.
2.7
Wiatr zmienny Wiatr od PdWs

Dziś
Wysoka -- | Niska -- ° F
--% Prawdop. opadów
Wczoraj
Wysoka -- | Niska -- ° F
Precip. -- cali
7:23 AM 6:07 PM
Powiększający się sierp Księżyca, 3% visible
Ciśnienie 29.91 cali
Widzialność 10.0 mil
chmury pogodnie
czynnik chłodzący wiatru 42 ° F
Punkt rosy 35 ° F
Wilgotność 77%
Opady deszczu 0.00 cali
grubość pokrywy śnieżnej Niedostępne.
UV 0 z 12
Pyłki 1.40 z 12
Ozon Dobre
PM2.5 Dobre
Flu Activity Sporadic
METAR KXLL 251035Z AUTO 00000KT 10SM CLR 06/00 A2991 RMK AO2

More Conditions Fewer Conditions

Ciśnienie 29.91 cali
Widzialność 10.0 mil
chmury pogodnie
czynnik chłodzący wiatru 42 ° F
Punkt rosy 35 ° F
Wilgotność 77%
Opady deszczu 0.00 cali
grubość pokrywy śnieżnej Niedostępne.
UV 0 z 12
Pyłki 1.40 z 12
Ozon Dobre
PM2.5 Dobre
Flu Activity Sporadic
METAR KXLL 251035Z AUTO 00000KT 10SM CLR 06/00 A2991 RMK AO2

More Conditions Fewer Conditions

10-Day Weather Forecast

Almanac

Astronomia

Oct. 25, 2014 Wschód Zachów
Aktualny czas 07:23 EDT 18:07 EDT
Zmierzch cywilny 06:55 EDT 18:35 EDT
Zmierzch żeglarski 06:23 EDT 19:07 EDT
świt/zmierzch astronomiczny 05:52 EDT 19:38 EDT
Księżyc 09:00 EDT 19:28 EDT
całkowite oświetlenie 11h 39m
Długość dnia
10h 43m
Tomorrow will be 2m 28s shorter.
Powiększający się sierp Księżyca, 3% of the Moon is Illuminated
Dziś
Powiększający się sierp Księżyca
Październik 30
Pierwsza kwadra
Listopad 6
Pełnia Księżyca
Listopad 14
Ostatnia kwadra
Listopad 22
Nowy

Dzisiejsze ekstrema

State Highs State Lows

Community

WunderPhotos

Upload Photos

1,764,808 zdjęcia zostały przesłane!

Nearby

Jakość powietrza

  Jakość powietrza czynnik AQ Zanieczyszczenie
Wczoraj Dobre
OZONE
Wczoraj Dobre
PM2.5
Obecnie Dobre
PM2.5
Obecnie Dobre
OZONE
Sobota Dobre
PM2.5
Niedziela Dobre
PM2.5
Poniedziałek Umiarkowany
PM2.5
Wtorek Umiarkowany
PM2.5

Głębokość pokrywy śnieżnej

Station Depth n.p.m.
Brak zgłoszeń świeżych opadów śniegu.

Aktywność sejsmiczna

Miejscowość Distance Mag. Time & Date
No recent earthquake activity has been reported nearby.
Minimum magnitude displayed is 2.5.

Temperatury wody na wybrzeżu

Miejsce Temperatura
Nie znaleziono stacji

Najbliższa stacja pogodowa